Latest Weather Observations for Rabbit Flat

IDD60801

Issued at 9:31 pm CST Sunday 28 August 2016 (issued every 30 minutes, with the page automatically refreshed every 10 minutes)

About weather observations | Map of weather stations | Latest weather observations for NT | Other Formats
Station Details ID: 015666 Name: RABBIT FLAT Lat: -20.18 Lon: 130.01 Height: 340.0 m
Data from the previous 72 hours. | See also: Recent months at Rabbit Flat
Date/Time
CST
Temp
°C
App
Temp
°C
Dew
Point
°C
Rel
Hum
%
Delta-T
°C
Wind Press
QNH
hPa
Press
MSL
hPa
Rain since
9am
mm
Dir  Spd
km/h
Gust
km/h
Spd
kts
Gust
kts
28/09:30pm 23.0 - 6.2 33 8.7 - - - - - 1012.8 - 0.0
28/09:00pm 24.3 - 2.6 24 10.6 - - - - - 1012.6 1011.6 0.0
28/08:30pm 23.2 - 2.9 26 9.9 - - - - - 1012.4 - 0.0
28/08:00pm 23.7 - 3.5 26 10.0 - - - - - 1012.2 - 0.0
28/07:30pm 24.9 - 4.1 26 10.5 - - - - - 1011.9 - 0.0
28/07:00pm 27.1 - 1.9 19 12.4 - - - - - 1011.7 - 0.0
28/06:30pm 29.0 - 1.6 17 13.6 - - - - - 1011.7 - 0.0
28/06:00pm 30.8 - 0.2 14 15.0 - - - - - 1011.7 1010.7 0.0
28/05:30pm 31.4 - 1.6 15 15.0 - - - - - 1011.5 - 0.0
28/05:00pm 32.1 - 1.3 14 15.5 - - - - - 1011.5 - 0.0
28/04:30pm 32.3 - -0.7 12 16.1 - - - - - 1011.4 - 0.0
28/04:00pm 32.1 - -0.8 12 16.0 - - - - - 1011.4 - 0.0
28/03:30pm 32.8 - -1.7 11 16.6 - - - - - 1011.7 - 0.0
28/03:00pm 31.9 - -2.4 11 16.2 - - - - - 1012.1 1011.1 0.0
28/02:30pm 32.1 - -2.8 10 16.4 - - - - - 1012.9 - 0.0
28/02:00pm 31.2 - -3.0 11 15.9 - - - - - 1013.4 - 0.0
28/01:30pm 31.1 - -5.5 9 16.3 - - - - - 1013.7 - 0.0
28/01:00pm 30.0 - -5.7 9 15.7 - - - - - 1014.5 - 0.0
28/12:30pm 29.7 - -4.4 10 15.3 - - - - - 1015.2 - 0.0
28/12:00pm 28.3 - -6.1 10 14.8 - - - - - 1016.1 1015.0 0.0
28/11:30am 27.9 - -5.1 11 14.4 - - - - - 1016.5 - 0.0
28/11:00am 25.6 - -4.4 13 13.0 - - - - - 1016.9 - 0.0
28/10:30am 25.7 - -4.2 13 13.0 - - - - - 1017.3 - 0.0
28/10:00am 23.7 - -4.1 15 11.9 - - - - - 1017.7 - 0.0
28/09:30am 21.5 - -3.4 18 10.6 - - - - - 1017.6 - 0.0
28/09:00am 20.3 - -2.6 21 9.8 - - - - - 1017.7 1016.7 0.0
28/08:30am 17.3 - -2.3 26 8.2 - - - - - 1017.5 - 0.0
28/08:00am 15.4 - -2.0 30 7.2 - - - - - 1017.0 - 0.0
28/07:30am 13.8 - -1.9 33 6.4 - - - - - 1016.5 - 0.0
28/07:00am 13.8 - -1.5 34 6.3 - - - - - 1016.0 - 0.0
28/06:30am 14.6 - -1.9 32 6.8 - - - - - 1015.7 - 0.0
28/06:00am 15.2 - -2.4 29 7.2 - - - - - 1015.3 1014.3 0.0
28/05:30am 15.3 - -2.6 29 7.3 - - - - - 1015.1 - 0.0
28/05:00am 14.4 - -1.9 32 6.7 - - - - - 1015.1 - 0.0
28/04:30am 13.3 - -2.0 34 6.2 - - - - - 1015.2 - 0.0
28/04:00am 12.6 - -0.3 41 5.4 - - - - - 1015.2 - 0.0
28/03:30am 13.6 - -1.8 34 6.3 - - - - - 1015.5 - 0.0
28/03:00am 12.9 - -1.6 36 5.9 - - - - - 1015.6 1014.6 0.0
28/02:30am 14.0 - -1.5 34 6.4 - - - - - 1015.5 - 0.0
28/02:00am 11.7 - -1.4 40 5.3 - - - - - 1015.9 - 0.0
28/01:30am 11.0 - -3.0 37 5.4 - - - - - 1016.2 - 0.0
28/01:00am 12.7 - -0.9 39 5.6 - - - - - 1016.6 - 0.0
28/12:30am 12.7 - -0.5 40 5.5 - - - - - 1016.8 - 0.0
28/12:00am 12.8 - -1.4 37 5.8 - - - - - 1017.0 1016.0 0.0
 
Date/Time
CST
Temp
°C
App
Temp
°C
Dew
Point
°C
Rel
Hum
%
Delta-T
°C
Wind Press
QNH
hPa
Press
MSL
hPa
Rain since
9am
mm
Dir  Spd
km/h
Gust
km/h
Spd
kts
Gust
kts
27/11:30pm 15.2 - 2.7 43 5.7 - - - - - 1017.0 - 0.0
27/11:00pm 17.9 - -0.4 29 8.0 - - - - - 1016.9 - 0.0
27/10:30pm 20.4 - -0.4 25 9.3 - - - - - 1016.9 - 0.0
27/10:00pm 21.0 - -0.7 23 9.7 - - - - - 1016.8 - 0.0
27/09:30pm 20.7 - -1.3 23 9.7 - - - - - 1016.8 - 0.0
27/09:00pm 20.2 - 0.0 26 9.1 - - - - - 1016.6 1015.6 0.0
27/08:30pm 21.0 - -0.3 24 9.6 - - - - - 1016.5 - 0.0
27/08:00pm 21.7 - 0.3 24 9.8 - - - - - 1016.2 - 0.0
27/07:30pm 22.8 - 1.8 25 10.0 - - - - - 1016.0 - 0.0
27/07:00pm 24.6 - 1.0 21 11.2 - - - - - 1015.7 - 0.0
27/06:30pm 26.4 - -1.3 16 12.8 - - - - - 1015.4 - 0.0
27/06:00pm 28.1 - -1.1 15 13.7 - - - - - 1015.3 1014.3 0.0
27/05:30pm 28.8 - -2.0 13 14.3 - - - - - 1015.2 - 0.0
27/05:00pm 29.6 - -4.2 11 15.2 - - - - - 1014.9 - 0.0
27/04:30pm 29.4 - -3.2 12 14.9 - - - - - 1015.0 - 0.0
27/04:00pm 29.8 - -2.6 12 15.0 - - - - - 1015.2 - 0.0
27/03:30pm 29.3 - -3.0 12 14.8 - - - - - 1015.5 - 0.0
27/03:00pm 29.0 - -2.9 12 14.6 - - - - - 1015.9 1014.8 0.0
27/02:30pm 28.4 - -2.2 13 14.1 - - - - - 1016.7 - 0.0
27/02:00pm 28.3 - -3.4 12 14.3 - - - - - 1017.1 - 0.0
27/01:30pm 27.5 - -3.7 12 13.9 - - - - - 1017.7 - 0.0
27/01:00pm 26.8 - -3.7 13 13.5 - - - - - 1018.3 - 0.0
27/12:30pm 25.7 - -5.3 12 13.2 - - - - - 1019.1 - 0.0
27/12:00pm 24.9 - -4.4 14 12.6 - - - - - 1019.5 1018.5 0.0
27/11:30am 23.9 - -3.1 16 11.8 - - - - - 1019.9 - 0.0
27/11:00am 23.1 - -3.8 16 11.5 - - - - - 1020.1 - 0.0
27/10:30am 22.2 - -1.9 20 10.6 - - - - - 1020.6 - 0.0
27/10:00am 21.0 - -2.0 21 10.0 - - - - - 1020.9 - 0.0
27/09:30am 19.2 - -1.7 24 9.0 - - - - - 1020.7 - 0.0
27/09:00am 18.3 - -1.9 25 8.6 - - - - - 1020.6 1019.6 0.0
27/08:30am 16.8 - -1.4 29 7.7 - - - - - 1020.6 - 0.0
27/08:00am 14.9 - -1.1 33 6.7 - - - - - 1020.3 - 0.0
27/07:30am 10.5 - -2.0 41 4.9 - - - - - 1020.2 - 0.0
27/07:00am 8.9 - -0.3 52 3.7 - - - - - 1019.7 - 0.0
27/06:30am 9.3 - -2.4 44 4.5 - - - - - 1019.3 - 0.0
27/06:00am 7.6 - -2.9 47 3.9 - - - - - 1018.7 1017.7 0.0
27/05:30am 6.5 - -3.1 50 3.5 - - - - - 1018.5 - 0.0
27/05:00am 7.1 - -3.3 47 3.8 - - - - - 1018.0 - 0.0
27/04:30am 7.9 - -1.7 50 3.7 - - - - - 1017.8 - 0.0
27/04:00am 9.0 - -1.5 48 4.1 - - - - - 1017.9 - 0.0
27/03:30am 11.8 - 0.1 44 4.9 - - - - - 1017.8 - 0.0
27/03:00am 13.0 - -1.8 36 6.0 - - - - - 1017.7 1016.7 0.0
27/02:30am 13.3 - -2.4 33 6.3 - - - - - 1017.7 - 0.0
27/02:00am 13.9 - -2.5 32 6.6 - - - - - 1018.0 - 0.0
27/01:30am 13.6 - -1.9 34 6.3 - - - - - 1018.3 - 0.0
27/01:00am 13.1 - -1.6 36 6.0 - - - - - 1018.5 - 0.0
27/12:30am 11.7 - -0.8 42 5.1 - - - - - 1018.7 - 0.0
27/12:00am 12.3 - -1.5 38 5.6 - - - - - 1019.0 1017.9 0.0
 
Date/Time
CST
Temp
°C
App
Temp
°C
Dew
Point
°C
Rel
Hum
%
Delta-T
°C
Wind Press
QNH
hPa
Press
MSL
hPa
Rain since
9am
mm
Dir  Spd
km/h
Gust
km/h
Spd
kts
Gust
kts
26/11:30pm 13.9 - -2.1 33 6.5 - - - - - 1019.1 - 0.0
26/11:00pm 14.6 - -2.4 31 6.9 - - - - - 1019.2 - 0.0
26/10:30pm 15.6 - -2.5 28 7.4 - - - - - 1019.3 - 0.0
26/10:00pm 16.2 - -2.9 27 7.8 - - - - - 1019.4 - 0.0
26/09:30pm 16.8 - -2.9 26 8.1 - - - - - 1019.1 - 0.0
26/09:00pm 17.5 - -3.6 23 8.6 - - - - - 1019.0 1017.9 0.0
26/08:30pm 18.3 - -3.2 23 8.9 - - - - - 1018.5 - 0.0
26/08:00pm 19.5 - -3.6 20 9.6 - - - - - 1018.1 - 0.0
26/07:30pm 20.3 - -3.1 20 9.9 - - - - - 1017.8 - 0.0
26/07:00pm 21.6 - -4.6 17 10.9 - - - - - 1017.3 - 0.0
26/06:30pm 23.2 - -5.4 14 11.9 - - - - - 1017.0 - 0.0
26/06:00pm 24.6 - -5.2 13 12.6 - - - - - 1016.8 1015.8 0.0
26/05:30pm 25.3 - -4.8 13 12.9 - - - - - 1016.5 - 0.0
26/05:00pm 25.4 - -4.5 13 12.9 - - - - - 1016.4 - 0.0
26/04:30pm 25.5 - -5.8 12 13.2 - - - - - 1016.6 - 0.0
26/04:00pm 26.1 - -5.7 12 13.5 - - - - - 1016.7 - 0.0
26/03:30pm 25.6 - -5.5 12 13.2 - - - - - 1016.9 - 0.0
26/03:00pm 25.4 - -5.0 13 13.0 - - - - - 1017.3 1016.3 0.0
26/02:30pm 25.6 - -5.5 12 13.2 - - - - - 1017.7 - 0.0
26/02:00pm 24.9 - -6.0 12 12.9 - - - - - 1018.2 - 0.0
26/01:30pm 25.0 - -5.2 13 12.8 - - - - - 1018.7 - 0.0
26/01:00pm 23.7 - -5.7 13 12.2 - - - - - 1019.4 - 0.0
26/12:30pm 23.8 - -4.9 14 12.1 - - - - - 1019.9 - 0.0
26/12:00pm 23.3 - -4.7 15 11.8 - - - - - 1020.3 1019.3 0.0
26/11:30am 22.6 - -4.6 16 11.4 - - - - - 1020.6 - 0.0
26/11:00am 21.7 - -4.4 17 10.9 - - - - - 1021.0 - 0.0
26/10:30am 20.2 - -4.3 19 10.1 - - - - - 1021.2 - 0.0
26/10:00am 19.7 - -4.1 19 9.8 - - - - - 1021.1 - 0.0
26/09:30am 19.0 - -3.4 21 9.3 - - - - - 1021.2 - 0.0
26/09:00am 16.9 - -3.2 25 8.2 - - - - - 1021.1 1020.1 0.0
26/08:30am 15.9 - -2.3 28 7.5 - - - - - 1020.6 - 0.0
26/08:00am 14.0 - -2.7 31 6.7 - - - - - 1020.1 - 0.0
26/07:30am 11.7 - -2.2 38 5.5 - - - - - 1019.8 - 0.0
26/07:00am 11.3 - -1.8 40 5.2 - - - - - 1019.5 - 0.0
26/06:30am 12.3 - -2.7 35 5.9 - - - - - 1019.0 - 0.0
26/06:00am 12.7 - -3.1 33 6.2 - - - - - 1018.4 1017.4 0.0
26/05:30am 12.3 - -3.0 34 6.0 - - - - - 1018.0 - 0.0
26/05:00am 12.4 - -3.6 32 6.2 - - - - - 1017.7 - 0.0
26/04:30am 12.4 - -4.5 30 6.4 - - - - - 1017.4 - 0.0
26/04:00am 11.9 - -4.6 31 6.2 - - - - - 1017.3 - 0.0
26/03:30am 9.5 - -4.4 37 5.1 - - - - - 1017.4 - 0.0
26/03:00am 10.6 - -2.9 38 5.2 - - - - - 1017.5 1016.5 0.0
26/02:30am 12.4 - -4.9 29 6.5 - - - - - 1017.6 - 0.0
26/02:00am 12.0 - -5.7 28 6.5 - - - - - 1017.9 - 0.0
26/01:30am 11.9 - -5.0 30 6.3 - - - - - 1017.8 - 0.0
26/01:00am 11.1 - -2.4 39 5.3 - - - - - 1018.2 - 0.0
26/12:30am 12.7 - -5.2 28 6.7 - - - - - 1018.2 - 0.0
26/12:00am 13.6 - -3.0 31 6.6 - - - - - 1018.1 1017.1 0.0
 
Date/Time
CST
Temp
°C
App
Temp
°C
Dew
Point
°C
Rel
Hum
%
Delta-T
°C
Wind Press
QNH
hPa
Press
MSL
hPa
Rain since
9am
mm
Dir  Spd
km/h
Gust
km/h
Spd
kts
Gust
kts
25/11:30pm 14.7 - -4.2 27 7.4 - - - - - 1018.2 - 0.0
25/11:00pm 15.5 - -5.7 23 8.1 - - - - - 1018.2 - 0.0
25/10:30pm 15.3 - -7.2 20 8.3 - - - - - 1018.1 - 0.0
25/10:00pm 14.4 - -2.3 31 6.8 - - - - - 1017.9 - 0.0

Other Formats:

Comma delimited format used in spreadsheet applications
http://www.bom.gov.au/fwo/IDD60801/IDD60801.95322.axf

JavaScript Object Notation format (JSON) in row-major order
http://www.bom.gov.au/fwo/IDD60801/IDD60801.95322.json